< < Back
Terminal Aerodrome Forecast


Current Version              Previous Versions:   1  2  3  4  5  6  7  8  9  

Terminal Aerodrome Forecast

187
FTUS42 KGSP 011120
TAFHKY
TAF
KHKY 011120Z 0112/0212 32003KT P6SM FEW070=



Latest METAR

370
SAUS70 KWBC 021000 RRI
MTRHKY
METAR KHKY 020953Z AUTO 32003KT 10SM CLR 19/16 A2999 RMK AO2 SLP131
T01890161


USA.gov is the U.S. government's official web portal to all federal, state and local government web resources and services.